首页
METAR-TAF:

METAR-TAF

机场 :

Rochelle Municipal Airport (Koritz Field)

罗沙尔, 伊利诺伊州, 美国

纬度: 41-53-35N, 经度: 089-04-42W, 海拔: 238米

当前天气观测

该预报发布于25分钟前的05:35 UTC
风速4节,风向西转西北
温度 0°C
湿度 100%
气压 1009 hPa
能見度: 1.6公里
阴天层高于300英尺
小雪

METAR: KRPJ 250535Z AUTO 29004KT 1SM -SN OVC003 00/00 A2980 RMK AO2 T00000000

时间: 00:00 (06:00 UTC)


TAF: 丢失

超过4000个机场的气象观测和天气预报(METAR&TAF报告)。

可查询的气象台以黄色和红色小点在地图上表示。

将鼠标移到小点上方,可查看气象台名称。

然后点击查看天气观测和预报。

如需切换地图:点击带黑十字的绿色按钮放大地图;点击带横线的绿色按钮缩小地图;或者点击绿色箭头查看邻近地区的地图。


METAR-TAF: